createdAt,value
2018-07-08T00:00:38.884Z,18.51
2018-07-08T00:03:10.313Z,18.44
2018-07-08T00:05:41.133Z,18.42
2018-07-08T00:08:12.218Z,18.46
2018-07-08T00:10:50.155Z,18.54
2018-07-08T00:13:21.519Z,18.60
2018-07-08T00:15:52.526Z,18.58
2018-07-08T00:18:25.061Z,18.55
2018-07-08T00:20:56.786Z,18.50
2018-07-08T00:23:27.875Z,18.48
2018-07-08T00:25:58.946Z,18.50
2018-07-08T00:28:30.009Z,18.45
2018-07-08T00:31:01.432Z,18.40
2018-07-08T00:33:32.993Z,18.37
2018-07-08T00:36:04.126Z,18.25
2018-07-08T00:38:35.527Z,18.13
2018-07-08T00:41:06.737Z,18.01
2018-07-08T00:43:37.679Z,17.90
2018-07-08T00:46:08.388Z,17.80
2018-07-08T00:48:39.420Z,17.71
2018-07-08T00:51:10.802Z,17.69
2018-07-08T00:53:41.829Z,17.58
2018-07-08T00:56:12.845Z,17.55
2018-07-08T00:58:43.926Z,17.61
2018-07-08T01:01:15.175Z,17.64
2018-07-08T01:03:46.173Z,17.62
2018-07-08T01:06:17.257Z,17.57
2018-07-08T01:08:48.677Z,17.48
2018-07-08T01:11:19.539Z,17.40
2018-07-08T01:13:50.343Z,17.27
2018-07-08T01:16:21.351Z,17.19
2018-07-08T01:18:52.428Z,17.08
2018-07-08T01:21:23.227Z,17.08
2018-07-08T01:23:54.200Z,17.03
2018-07-08T01:26:25.857Z,16.98
2018-07-08T01:28:56.993Z,16.93
2018-07-08T01:31:28.046Z,16.85
2018-07-08T01:33:59.578Z,16.85
2018-07-08T01:36:30.967Z,16.77
2018-07-08T01:39:01.727Z,16.70
2018-07-08T01:41:32.730Z,16.63
2018-07-08T01:44:04.002Z,16.66
2018-07-08T01:46:34.990Z,16.68
2018-07-08T01:49:06.369Z,16.72
2018-07-08T01:51:37.370Z,16.73
2018-07-08T01:54:08.122Z,16.80
2018-07-08T01:56:38.859Z,16.84
2018-07-08T01:59:10.106Z,16.88
2018-07-08T02:01:41.298Z,16.89
2018-07-08T02:04:12.981Z,16.90
2018-07-08T02:06:43.762Z,16.86
2018-07-08T02:09:14.277Z,16.76
2018-07-08T02:11:45.436Z,16.67
2018-07-08T02:14:16.221Z,16.62
2018-07-08T02:16:47.043Z,16.63
2018-07-08T02:19:18.138Z,16.63
2018-07-08T02:21:49.410Z,16.71
2018-07-08T02:24:20.752Z,16.71
2018-07-08T02:26:51.764Z,16.75
2018-07-08T02:29:22.915Z,16.76
2018-07-08T02:31:53.966Z,16.73
2018-07-08T02:34:25.510Z,16.71
2018-07-08T02:36:56.566Z,16.71
2018-07-08T02:39:28.068Z,16.70
2018-07-08T02:41:58.811Z,16.74
2018-07-08T02:44:30.082Z,16.77
2018-07-08T02:47:01.862Z,16.78
2018-07-08T02:49:33.106Z,16.76
2018-07-08T02:52:04.079Z,16.77
2018-07-08T02:54:35.074Z,16.74
2018-07-08T02:57:06.118Z,16.68
2018-07-08T02:59:37.364Z,16.66
2018-07-08T03:02:09.134Z,16.62
2018-07-08T03:04:40.145Z,16.56
2018-07-08T03:07:11.162Z,16.49
2018-07-08T03:09:42.316Z,16.44
2018-07-08T03:12:13.315Z,16.40
2018-07-08T03:14:44.339Z,16.38
2018-07-08T03:17:15.347Z,16.38
2018-07-08T03:19:46.371Z,16.38
2018-07-08T03:22:17.558Z,16.34
2018-07-08T03:24:48.251Z,16.31
2018-07-08T03:27:19.280Z,16.29
2018-07-08T03:29:50.332Z,16.31
2018-07-08T03:32:21.318Z,16.31
2018-07-08T03:34:52.340Z,16.24
2018-07-08T03:37:23.695Z,16.14
2018-07-08T03:39:54.753Z,16.12
2018-07-08T03:42:25.769Z,16.12
2018-07-08T03:44:56.785Z,16.09
2018-07-08T03:47:27.770Z,16.11
2018-07-08T03:49:58.767Z,16.15
2018-07-08T03:52:30.139Z,16.19
2018-07-08T03:55:01.479Z,16.21
2018-07-08T03:57:32.432Z,16.20
2018-07-08T04:00:03.866Z,16.24
2018-07-08T04:02:34.581Z,16.25
2018-07-08T04:05:05.810Z,16.25
2018-07-08T04:07:36.820Z,16.23
2018-07-08T04:10:08.208Z,16.28
2018-07-08T04:12:39.657Z,16.28
2018-07-08T04:15:10.413Z,16.25
2018-07-08T04:17:41.967Z,16.13
2018-07-08T04:20:13.014Z,16.04
2018-07-08T04:22:44.049Z,16.04
2018-07-08T04:25:15.072Z,16.05
2018-07-08T04:27:46.113Z,15.96
2018-07-08T04:30:17.474Z,15.92
2018-07-08T04:32:48.690Z,15.95
2018-07-08T04:35:19.685Z,16.00
2018-07-08T04:37:50.801Z,16.05
2018-07-08T04:40:21.754Z,15.99
2018-07-08T04:42:52.834Z,16.03
2018-07-08T04:45:23.921Z,15.97
2018-07-08T04:47:54.645Z,15.95
2018-07-08T04:50:25.667Z,15.96
2018-07-08T04:52:57.011Z,15.91
2018-07-08T04:55:27.804Z,15.92
2018-07-08T04:57:58.971Z,15.92
2018-07-08T05:00:30.422Z,15.91
2018-07-08T05:03:01.404Z,15.86
2018-07-08T05:05:32.443Z,15.78
2018-07-08T05:08:03.716Z,15.83
2018-07-08T05:10:34.803Z,15.84
2018-07-08T05:13:05.839Z,15.85
2018-07-08T05:15:37.282Z,15.92
2018-07-08T05:18:08.331Z,16.03
2018-07-08T05:20:39.644Z,16.07
2018-07-08T05:23:10.663Z,16.10
2018-07-08T05:25:42.038Z,16.14
2018-07-08T05:28:13.025Z,16.05
2018-07-08T05:30:44.033Z,16.09
2018-07-08T05:33:15.015Z,16.13
2018-07-08T05:35:46.075Z,16.21
2018-07-08T05:38:17.238Z,16.26
2018-07-08T05:40:48.121Z,16.30
2018-07-08T05:43:19.031Z,16.34
2018-07-08T05:45:49.911Z,16.35
2018-07-08T05:48:21.093Z,16.34
2018-07-08T05:50:52.457Z,16.33
2018-07-08T05:53:23.469Z,16.41
2018-07-08T05:55:54.443Z,16.53
2018-07-08T05:58:25.417Z,16.61
2018-07-08T06:00:56.501Z,16.64
2018-07-08T06:03:27.518Z,16.64
2018-07-08T06:05:58.571Z,16.57
2018-07-08T06:08:29.655Z,16.76
2018-07-08T06:11:00.541Z,16.81
2018-07-08T06:13:31.433Z,16.86
2018-07-08T06:16:02.616Z,17.01
2018-07-08T06:18:33.963Z,17.27
2018-07-08T06:21:05.218Z,17.52
2018-07-08T06:23:35.917Z,17.74
2018-07-08T06:26:07.344Z,17.87
2018-07-08T06:28:38.710Z,17.84
2018-07-08T06:31:09.623Z,17.79
2018-07-08T06:33:40.650Z,17.68
2018-07-08T06:36:11.745Z,17.69
2018-07-08T06:38:42.920Z,17.88
2018-07-08T06:41:14.271Z,18.02
2018-07-08T06:43:45.308Z,18.10
2018-07-08T06:46:16.318Z,18.11
2018-07-08T06:48:47.392Z,18.24
2018-07-08T06:51:18.372Z,18.56
2018-07-08T06:53:49.495Z,18.71
2018-07-08T06:56:20.525Z,18.76
2018-07-08T06:58:52.080Z,18.63
2018-07-08T07:01:23.101Z,18.76
2018-07-08T07:03:54.192Z,18.80
2018-07-08T07:06:24.960Z,18.90
2018-07-08T07:08:56.296Z,19.24
2018-07-08T07:11:27.606Z,19.65
2018-07-08T07:13:58.714Z,19.72
2018-07-08T07:16:29.767Z,19.84
2018-07-08T07:19:00.761Z,19.85
2018-07-08T07:21:31.797Z,19.86
2018-07-08T07:24:02.806Z,19.76
2018-07-08T07:26:34.399Z,19.40
2018-07-08T07:29:05.792Z,19.38
2018-07-08T07:31:36.849Z,19.46
2018-07-08T07:34:08.698Z,19.42
2018-07-08T07:36:39.615Z,19.77
2018-07-08T07:39:10.863Z,20.32
2018-07-08T07:41:41.645Z,20.89
2018-07-08T07:44:13.026Z,20.75
2018-07-08T07:46:44.033Z,20.87
2018-07-08T07:49:15.047Z,21.26
2018-07-08T07:51:46.065Z,21.65
2018-07-08T07:54:17.171Z,21.92
2018-07-08T07:56:48.653Z,22.00
2018-07-08T07:59:19.846Z,22.22
2018-07-08T08:01:51.084Z,22.10
2018-07-08T08:04:22.173Z,22.21
2018-07-08T08:06:53.465Z,22.20
2018-07-08T08:09:24.496Z,22.43
2018-07-08T08:11:55.501Z,22.28
2018-07-08T08:14:26.691Z,22.22
2018-07-08T08:16:57.841Z,22.72
2018-07-08T08:19:28.856Z,23.16
2018-07-08T08:21:59.970Z,22.94
2018-07-08T08:24:31.365Z,22.86
2018-07-08T08:27:02.425Z,23.20
2018-07-08T08:32:03.284Z,23.90
2018-07-08T08:34:54.418Z,24.02
2018-07-08T08:37:28.058Z,24.11
2018-07-08T08:39:58.863Z,24.11
2018-07-08T08:42:29.766Z,23.53
2018-07-08T08:45:01.198Z,23.48
2018-07-08T08:47:34.521Z,23.72
2018-07-08T08:50:07.650Z,24.18
2018-07-08T08:52:38.874Z,24.58
2018-07-08T08:55:10.898Z,24.61
2018-07-08T08:57:42.194Z,24.78
2018-07-08T09:00:15.689Z,24.34
2018-07-08T09:02:47.127Z,23.91
2018-07-08T09:05:18.480Z,23.41
2018-07-08T09:07:49.559Z,22.96
2018-07-08T09:10:20.602Z,23.00
2018-07-08T09:12:51.610Z,23.31
2018-07-08T09:15:22.658Z,23.38
2018-07-08T09:17:53.643Z,23.56
2018-07-08T09:20:25.030Z,23.95
2018-07-08T09:22:56.038Z,24.25
2018-07-08T09:25:27.054Z,24.60
2018-07-08T09:27:58.140Z,24.81
2018-07-08T09:30:29.212Z,24.38
2018-07-08T09:32:59.992Z,24.03
2018-07-08T09:35:31.007Z,24.08
2018-07-08T09:38:02.057Z,23.94
2018-07-08T09:40:33.140Z,23.83
2018-07-08T09:43:05.277Z,23.77
2018-07-08T09:45:36.336Z,23.98
2018-07-08T09:48:07.159Z,24.43
2018-07-08T09:50:38.449Z,24.81
2018-07-08T09:53:12.108Z,24.81
2018-07-08T09:55:43.181Z,23.89
2018-07-08T09:58:14.256Z,23.60
2018-07-08T10:00:45.390Z,23.46
2018-07-08T10:03:18.835Z,23.73
2018-07-08T10:05:50.091Z,23.81
2018-07-08T10:08:21.122Z,24.07
2018-07-08T10:10:52.533Z,24.34
2018-07-08T10:13:24.381Z,24.48
2018-07-08T10:15:55.187Z,24.30
2018-07-08T10:18:26.253Z,23.88
2018-07-08T10:20:57.774Z,24.11
2018-07-08T10:23:28.796Z,24.37
2018-07-08T10:25:59.842Z,24.66
2018-07-08T10:28:30.943Z,25.07
2018-07-08T10:31:02.215Z,24.63
2018-07-08T10:34:06.381Z,24.04
2018-07-08T10:36:37.925Z,23.74
2018-07-08T10:39:11.396Z,23.95
2018-07-08T10:41:42.949Z,24.32
2018-07-08T10:44:14.139Z,24.64
2018-07-08T10:46:45.123Z,24.48
2018-07-08T10:49:16.273Z,24.18
2018-07-08T10:51:47.360Z,23.98
2018-07-08T10:54:18.574Z,23.69
2018-07-08T10:56:49.624Z,23.92
2018-07-08T10:59:20.792Z,24.20
2018-07-08T11:01:51.936Z,24.07
2018-07-08T11:04:23.375Z,24.24
2018-07-08T11:06:54.420Z,24.26
2018-07-08T11:09:25.413Z,24.04
2018-07-08T11:11:56.325Z,24.06
2018-07-08T11:14:27.595Z,24.11
2018-07-08T11:16:58.598Z,23.55
2018-07-08T11:19:29.798Z,23.65
2018-07-08T11:22:00.810Z,23.79
2018-07-08T11:24:31.843Z,23.74
2018-07-08T11:27:02.882Z,23.91
2018-07-08T11:29:33.974Z,23.91
2018-07-08T11:32:05.090Z,24.05
2018-07-08T11:34:35.864Z,24.39
2018-07-08T11:37:06.886Z,24.79
2018-07-08T11:39:37.909Z,24.78
2018-07-08T11:42:09.119Z,25.01
2018-07-08T11:44:40.320Z,24.87
2018-07-08T11:47:14.511Z,24.70
2018-07-08T11:49:45.951Z,24.51
2018-07-08T11:52:17.479Z,24.30
2018-07-08T11:54:48.499Z,24.32
2018-07-08T11:57:19.575Z,24.50
2018-07-08T11:59:50.938Z,24.47
2018-07-08T12:02:22.072Z,24.13
2018-07-08T12:04:53.242Z,24.32
2018-07-08T12:07:24.375Z,24.59
2018-07-08T12:09:55.648Z,24.80
2018-07-08T12:12:27.089Z,24.37
2018-07-08T12:14:58.195Z,24.32
2018-07-08T12:17:29.701Z,24.44
2018-07-08T12:20:00.737Z,24.62
2018-07-08T12:22:32.153Z,24.78
2018-07-08T12:25:03.169Z,24.74
2018-07-08T12:27:34.263Z,25.04
2018-07-08T12:30:05.546Z,25.03
2018-07-08T12:32:36.555Z,24.97
2018-07-08T12:35:07.942Z,24.85
2018-07-08T12:37:39.051Z,24.94
2018-07-08T12:40:10.239Z,24.75
2018-07-08T12:42:41.338Z,24.76
2018-07-08T12:45:12.588Z,24.54
2018-07-08T12:47:43.496Z,24.69
2018-07-08T12:50:14.480Z,24.83
2018-07-08T12:52:45.522Z,25.03
2018-07-08T12:55:16.704Z,24.82
2018-07-08T12:57:48.023Z,24.82
2018-07-08T13:00:19.097Z,24.88
2018-07-08T13:02:50.102Z,25.06
2018-07-08T13:05:21.101Z,25.15
2018-07-08T13:07:52.071Z,25.16
2018-07-08T13:10:23.572Z,25.29
2018-07-08T13:12:54.380Z,25.22
2018-07-08T13:15:25.413Z,25.29
2018-07-08T13:17:56.841Z,25.53
2018-07-08T13:20:28.001Z,25.64
2018-07-08T13:22:59.025Z,25.67
2018-07-08T13:25:30.298Z,25.68
2018-07-08T13:28:01.343Z,25.63
2018-07-08T13:30:32.686Z,25.64
2018-07-08T13:33:03.879Z,25.51
2018-07-08T13:35:35.198Z,25.42
2018-07-08T13:38:06.910Z,25.45
2018-07-08T13:40:38.175Z,25.39
2018-07-08T13:43:09.607Z,25.41
2018-07-08T13:45:40.618Z,25.33
2018-07-08T13:48:11.706Z,25.39
2018-07-08T13:50:42.878Z,25.46
2018-07-08T13:53:14.106Z,25.40
2018-07-08T13:55:45.188Z,25.44
2018-07-08T13:58:16.377Z,25.47
2018-07-08T14:00:47.593Z,25.44
2018-07-08T14:03:18.773Z,25.60
2018-07-08T14:05:49.748Z,25.51
2018-07-08T14:08:20.834Z,25.52
2018-07-08T14:10:52.212Z,25.53
2018-07-08T14:13:23.287Z,25.58
2018-07-08T14:15:54.299Z,25.29
2018-07-08T14:18:25.367Z,25.46
2018-07-08T14:20:57.563Z,25.48
2018-07-08T14:23:28.802Z,25.78
2018-07-08T14:25:59.840Z,25.90
2018-07-08T14:28:30.719Z,25.88
2018-07-08T14:31:01.616Z,25.85
2018-07-08T14:33:32.892Z,25.56
2018-07-08T14:36:03.916Z,25.51
2018-07-08T14:38:35.293Z,25.41
2018-07-08T14:41:06.465Z,25.46
2018-07-08T14:43:37.518Z,25.52
2018-07-08T14:46:08.592Z,25.45
2018-07-08T14:48:40.164Z,25.20
2018-07-08T14:51:11.269Z,25.01
2018-07-08T14:53:42.624Z,25.12
2018-07-08T14:56:13.651Z,25.21
2018-07-08T14:58:44.675Z,25.38
2018-07-08T15:01:15.684Z,25.39
2018-07-08T15:03:46.908Z,25.50
2018-07-08T15:06:17.959Z,25.64
2018-07-08T15:08:48.951Z,25.60
2018-07-08T15:11:19.972Z,25.62
2018-07-08T15:13:51.022Z,25.67
2018-07-08T15:16:22.108Z,25.49
2018-07-08T15:18:53.242Z,25.37
2018-07-08T15:21:24.295Z,25.59
2018-07-08T15:23:55.337Z,25.71
2018-07-08T15:26:26.173Z,25.73
2018-07-08T15:28:57.582Z,25.72
2018-07-08T15:31:28.384Z,25.82
2018-07-08T15:33:59.737Z,25.87
2018-07-08T15:36:31.131Z,25.70
2018-07-08T15:39:02.210Z,25.66
2018-07-08T15:41:33.952Z,25.71
2018-07-08T15:44:05.155Z,25.83
2018-07-08T15:46:35.900Z,25.80
2018-07-08T15:49:06.959Z,25.84
2018-07-08T15:51:38.310Z,25.84
2018-07-08T15:54:09.417Z,25.99
2018-07-08T15:56:40.714Z,26.15
2018-07-08T15:59:11.772Z,26.20
2018-07-08T16:01:42.836Z,26.28
2018-07-08T16:04:14.101Z,26.10
2018-07-08T16:06:44.912Z,26.05
2018-07-08T16:09:16.607Z,26.27
2018-07-08T16:11:47.635Z,26.33
2018-07-08T16:14:19.303Z,26.39
2018-07-08T16:16:50.731Z,26.27
2018-07-08T16:19:21.756Z,26.25
2018-07-08T16:21:52.828Z,26.24
2018-07-08T16:24:23.627Z,26.07
2018-07-08T16:26:54.648Z,26.02
2018-07-08T16:29:26.103Z,25.99
2018-07-08T16:31:57.143Z,25.98
2018-07-08T16:34:28.322Z,26.05
2018-07-08T16:36:59.366Z,26.03
2018-07-08T16:39:30.374Z,26.23
2018-07-08T16:42:01.379Z,26.08
2018-07-08T16:44:32.424Z,26.03
2018-07-08T16:47:03.522Z,25.96
2018-07-08T16:49:34.509Z,26.01
2018-07-08T16:52:05.538Z,25.99
2018-07-08T16:54:36.892Z,25.95
2018-07-08T16:57:07.872Z,25.93
2018-07-08T16:59:42.829Z,25.80
2018-07-08T17:02:14.401Z,25.93
2018-07-08T17:04:45.544Z,25.80
2018-07-08T17:07:16.697Z,25.70
2018-07-08T17:09:47.967Z,25.50
2018-07-08T17:12:18.967Z,25.66
2018-07-08T17:14:49.993Z,25.74
2018-07-08T17:17:21.031Z,25.81
2018-07-08T17:19:51.795Z,25.79
2018-07-08T17:22:23.286Z,25.91
2018-07-08T17:24:54.078Z,25.96
2018-07-08T17:27:25.671Z,25.85
2018-07-08T17:29:57.072Z,25.83
2018-07-08T17:32:28.888Z,25.82
2018-07-08T17:35:01.854Z,25.81
2018-07-08T17:37:32.926Z,25.58
2018-07-08T17:40:04.043Z,25.60
2018-07-08T17:42:35.126Z,25.41
2018-07-08T17:45:06.970Z,25.42
2018-07-08T17:47:38.136Z,25.26
2018-07-08T17:50:09.965Z,25.27
2018-07-08T17:52:40.758Z,25.32
2018-07-08T17:55:11.710Z,25.47
2018-07-08T17:57:43.047Z,25.51
2018-07-08T18:00:15.148Z,25.48
2018-07-08T18:02:46.151Z,25.36
2018-07-08T18:05:17.145Z,25.42
2018-07-08T18:07:48.595Z,25.29
2018-07-08T18:10:19.569Z,25.25
2018-07-08T18:12:50.713Z,25.11
2018-07-08T18:15:21.702Z,25.08
2018-07-08T18:17:52.796Z,25.22
2018-07-08T18:20:23.663Z,25.25
2018-07-08T18:22:55.118Z,25.25
2018-07-08T18:25:26.116Z,25.28
2018-07-08T18:27:57.159Z,25.26
2018-07-08T18:30:28.221Z,25.21
2018-07-08T18:32:59.266Z,25.06
2018-07-08T18:35:30.026Z,25.08
2018-07-08T18:38:01.770Z,25.02
2018-07-08T18:40:33.300Z,25.07
2018-07-08T18:43:04.701Z,25.09
2018-07-08T18:45:35.700Z,24.96
2018-07-08T18:48:06.821Z,25.03
2018-07-08T18:50:38.582Z,24.87
2018-07-08T18:53:10.147Z,24.80
2018-07-08T18:55:41.194Z,24.76
2018-07-08T18:58:12.339Z,24.62
2018-07-08T19:00:44.194Z,24.59
2018-07-08T19:03:15.520Z,24.63
2018-07-08T19:05:46.688Z,24.64
2018-07-08T19:08:18.028Z,24.55
2018-07-08T19:10:49.174Z,24.43
2018-07-08T19:13:20.662Z,24.44
2018-07-08T19:15:52.480Z,24.46
2018-07-08T19:18:23.572Z,24.46
2018-07-08T19:20:55.218Z,24.44
2018-07-08T19:23:26.411Z,24.44
2018-07-08T19:25:57.646Z,24.41
2018-07-08T19:28:29.176Z,24.40
2018-07-08T19:31:00.633Z,24.39
2018-07-08T19:33:31.771Z,24.18
2018-07-08T19:36:04.012Z,24.14
2018-07-08T19:38:35.354Z,24.15
2018-07-08T19:41:06.921Z,24.11
2018-07-08T19:43:39.033Z,24.10
2018-07-08T19:46:10.442Z,24.08
2018-07-08T19:48:41.929Z,24.03
2018-07-08T19:51:13.519Z,24.03
2018-07-08T19:53:44.990Z,23.99
2018-07-08T19:56:16.056Z,23.98
2018-07-08T19:58:47.765Z,23.92
2018-07-08T20:01:18.829Z,23.90
2018-07-08T20:03:50.020Z,23.84
2018-07-08T20:06:20.807Z,23.81
2018-07-08T20:08:52.646Z,23.76
2018-07-08T20:11:24.368Z,23.68
2018-07-08T20:13:55.394Z,23.66
2018-07-08T20:16:27.081Z,23.60
2018-07-08T20:18:58.539Z,23.53
2018-07-08T20:21:29.695Z,23.50
2018-07-08T20:24:00.858Z,23.45
2018-07-08T20:26:31.890Z,23.40
2018-07-08T20:29:03.395Z,23.38
2018-07-08T20:31:34.427Z,23.29
2018-07-08T20:34:05.788Z,23.27
2018-07-08T20:36:36.982Z,23.20
2018-07-08T20:39:09.196Z,23.16
2018-07-08T20:41:40.411Z,23.11
2018-07-08T20:44:11.152Z,23.11
2018-07-08T20:46:42.608Z,23.08
2018-07-08T20:49:14.855Z,22.99
2018-07-08T20:51:46.010Z,22.93
2018-07-08T20:54:16.856Z,22.80
2018-07-08T20:56:48.621Z,22.81
2018-07-08T20:59:20.063Z,22.78
2018-07-08T21:01:51.146Z,22.46
2018-07-08T21:04:22.984Z,22.44
2018-07-08T21:06:54.389Z,22.42
2018-07-08T21:09:25.761Z,22.41
2018-07-08T21:11:56.776Z,22.42
2018-07-08T21:14:28.184Z,22.36
2018-07-08T21:16:59.212Z,22.34
2018-07-08T21:19:30.455Z,22.30
2018-07-08T21:22:01.482Z,22.23
2018-07-08T21:24:32.679Z,22.22
2018-07-08T21:27:03.866Z,22.14
2018-07-08T21:29:34.993Z,22.04
2018-07-08T21:32:05.729Z,21.80
2018-07-08T21:34:36.701Z,21.48
2018-07-08T21:37:08.068Z,21.67
2018-07-08T21:39:39.095Z,21.75
2018-07-08T21:42:10.184Z,21.71
2018-07-08T21:44:43.316Z,21.73
2018-07-08T21:47:14.421Z,21.74
2018-07-08T21:49:45.534Z,21.74
2018-07-08T21:52:16.919Z,21.65
2018-07-08T21:54:48.343Z,21.62
2018-07-08T21:57:19.489Z,21.35
2018-07-08T21:59:50.730Z,21.26
2018-07-08T22:02:22.753Z,21.28
2018-07-08T22:04:53.479Z,21.31
2018-07-08T22:07:28.665Z,21.29
2018-07-08T22:09:59.690Z,21.26
2018-07-08T22:12:31.032Z,21.22
2018-07-08T22:15:02.028Z,21.21
2018-07-08T22:17:33.362Z,21.16
2018-07-08T22:20:04.725Z,21.15
2018-07-08T22:22:35.820Z,21.02
2018-07-08T22:25:06.607Z,21.03
2018-07-08T22:27:37.230Z,20.98
2018-07-08T22:30:08.740Z,20.95
2018-07-08T22:32:39.832Z,20.90
2018-07-08T22:35:10.852Z,20.91
2018-07-08T22:37:41.888Z,20.88
2018-07-08T22:40:12.897Z,20.86
2018-07-08T22:42:44.317Z,20.81
2018-07-08T22:45:15.724Z,20.82
2018-07-08T22:47:46.930Z,20.83
2018-07-08T22:50:18.012Z,20.87
2018-07-08T22:52:49.000Z,20.87
2018-07-08T22:55:20.405Z,20.90
2018-07-08T22:57:51.498Z,20.92
2018-07-08T23:00:39.687Z,20.93
2018-07-08T23:03:50.085Z,20.90
2018-07-08T23:06:21.196Z,20.83
2018-07-08T23:08:52.807Z,20.86
2018-07-08T23:11:24.589Z,20.88
2018-07-08T23:13:56.771Z,20.89
2018-07-08T23:16:28.072Z,20.92
2018-07-08T23:18:59.220Z,20.91
2018-07-08T23:21:30.611Z,20.84
2018-07-08T23:24:01.453Z,20.72
2018-07-08T23:26:32.663Z,20.64
2018-07-08T23:29:03.403Z,20.61
2018-07-08T23:31:34.720Z,20.55
2018-07-08T23:34:05.770Z,20.42
2018-07-08T23:36:36.820Z,20.31
2018-07-08T23:39:07.802Z,20.20
2018-07-08T23:41:39.209Z,20.22
2018-07-08T23:44:10.412Z,20.22
2018-07-08T23:46:41.476Z,20.29
2018-07-08T23:49:12.625Z,20.33
2018-07-08T23:51:43.501Z,20.30
2018-07-08T23:54:14.553Z,20.30
2018-07-08T23:56:45.961Z,20.26
2018-07-08T23:59:16.757Z,20.27
